Time;durP1;ratioP1;P1;durP2;ratioP2;P2;SDS_P1;SDS_P2;PMS_P1;PMS_P2;Temp;Humidity;BMP_temperature;BMP_pressure;BME280_temperature;BME280_humidity;BME280_pressure;Samples;Min_cycle;Max_cycle;Signal;HPM_P1;HPM_P2
2022/11/13 00:00:26;;;;;;;34.95;18.25;;;;;;;5.59;73.12;100062.50;5051128;28;20056;-67
2022/11/13 00:02:51;;;;;;;39.38;20.17;;;;;;;5.59;73.03;100057.88;5068884;28;20028;-67
2022/11/13 00:05:16;;;;;;;37.15;21.65;;;;;;;5.62;72.82;100062.06;5069448;28;20028;-66
2022/11/13 00:07:42;;;;;;;40.35;21.48;;;;;;;5.60;72.99;100058.75;5069200;28;20021;-66
2022/11/13 00:10:07;;;;;;;38.50;20.27;;;;;;;5.59;72.96;100059.78;5069012;28;20082;-66
2022/11/13 00:12:33;;;;;;;40.15;20.70;;;;;;;5.56;72.90;100058.34;5069703;28;20032;-66
2022/11/13 00:14:58;;;;;;;40.05;21.52;;;;;;;5.56;72.98;100058.34;5070159;28;20029;-66
2022/11/13 00:17:24;;;;;;;42.35;20.90;;;;;;;5.55;73.06;100056.66;5070041;28;20029;-66
2022/11/13 00:19:49;;;;;;;42.08;21.60;;;;;;;5.55;72.92;100051.22;5069528;28;20028;-67
2022/11/13 00:22:14;;;;;;;47.17;22.38;;;;;;;5.53;73.43;100053.34;5069551;28;20046;-67
2022/11/13 00:24:40;;;;;;;46.35;22.52;;;;;;;5.58;73.67;100058.94;5069944;28;20029;-67
2022/11/13 00:27:05;;;;;;;50.55;25.30;;;;;;;5.64;73.22;100058.06;5068849;28;20493;-66
2022/11/13 00:29:31;;;;;;;51.50;25.27;;;;;;;5.71;73.42;100070.78;5067791;28;20472;-67
2022/11/13 00:31:56;;;;;;;53.78;25.77;;;;;;;5.75;73.62;100067.38;5067773;28;20540;-67
2022/11/13 00:34:22;;;;;;;51.08;24.83;;;;;;;5.75;73.17;100061.91;5068748;28;20082;-67
2022/11/13 00:36:47;;;;;;;52.95;24.38;;;;;;;5.77;73.76;100056.28;5068599;28;20376;-68
2022/11/13 00:39:12;;;;;;;54.38;26.67;;;;;;;5.81;73.67;100068.38;5065042;28;20032;-67
2022/11/13 00:41:38;;;;;;;62.28;29.55;;;;;;;5.86;73.72;100060.38;5066704;28;20024;-67
2022/11/13 00:44:03;;;;;;;58.67;29.42;;;;;;;5.91;73.99;100062.41;5069016;28;20390;-68
2022/11/13 00:46:29;;;;;;;60.10;29.10;;;;;;;5.93;73.81;100058.38;5069443;28;20037;-68
2022/11/13 00:48:55;;;;;;;49.97;25.50;;;;;;;5.93;73.61;100050.22;5068536;28;20041;-67
2022/11/13 00:51:20;;;;;;;52.28;25.63;;;;;;;5.92;73.54;100042.28;5068647;28;20021;-67
2022/11/13 00:53:46;;;;;;;57.70;28.10;;;;;;;5.91;73.53;100036.00;5068154;28;20040;-67
2022/11/13 00:56:12;;;;;;;50.55;24.90;;;;;;;5.94;73.94;100040.97;5068798;28;20392;-67
2022/11/13 00:58:37;;;;;;;51.55;26.40;;;;;;;5.93;73.83;100039.31;5069532;28;20028;-68
2022/11/13 01:01:06;;;;;;;59.30;28.50;;;;;;;5.94;73.71;100034.72;5054351;28;20075;-68
2022/11/13 01:03:31;;;;;;;64.88;31.92;;;;;;;5.98;73.63;100033.22;5071759;28;20134;-67
2022/11/13 01:05:56;;;;;;;53.30;26.85;;;;;;;5.97;73.71;100037.00;5072328;28;20483;-68
2022/11/13 01:08:22;;;;;;;50.42;25.45;;;;;;;5.91;73.42;100024.28;5072358;28;20036;-68
2022/11/13 01:10:48;;;;;;;47.28;25.02;;;;;;;5.89;73.45;100029.13;5071622;28;20469;-67
2022/11/13 01:13:14;;;;;;;43.58;23.88;;;;;;;5.89;73.49;100019.06;5070606;28;20032;-67
2022/11/13 01:15:42;;;;;;;46.80;23.52;;;;;;;5.88;73.59;100028.31;5071146;28;20028;-67
2022/11/13 01:18:07;;;;;;;57.00;27.20;;;;;;;5.90;73.48;100020.75;5070917;28;20051;-68
2022/11/13 01:20:33;;;;;;;54.53;26.85;;;;;;;5.89;73.88;100019.06;5071178;28;20155;-67
2022/11/13 01:22:58;;;;;;;55.17;27.98;;;;;;;5.91;73.71;100014.19;5069878;28;20020;-68
2022/11/13 01:25:24;;;;;;;59.03;28.80;;;;;;;5.94;74.23;100012.94;5071272;28;20024;-68
2022/11/13 01:27:49;;;;;;;60.53;29.65;;;;;;;5.97;73.89;100017.94;5071350;28;20064;-68
2022/11/13 01:30:15;;;;;;;59.67;28.35;;;;;;;5.96;74.01;100014.34;5071296;28;20056;-68
2022/11/13 01:32:40;;;;;;;57.63;28.83;;;;;;;5.99;73.89;100014.97;5070349;28;20105;-67
2022/11/13 01:35:06;;;;;;;57.28;29.67;;;;;;;6.00;74.28;100013.91;5071330;28;20109;-68
2022/11/13 01:37:31;;;;;;;53.13;26.92;;;;;;;5.97;74.11;100007.03;5071377;28;20029;-68
2022/11/13 01:39:56;;;;;;;55.55;28.17;;;;;;;5.92;73.95;100007.69;5071282;28;20020;-68
2022/11/13 01:42:22;;;;;;;54.28;27.30;;;;;;;5.89;73.81;100002.75;5071332;28;20024;-67
2022/11/13 01:44:58;;;;;;;48.50;24.70;;;;;;;5.85;73.58;100006.13;5071878;28;20535;-68
2022/11/13 01:47:25;;;;;;;49.72;26.00;;;;;;;5.82;73.99;99985.63;5071296;28;20119;-67
2022/11/13 01:49:53;;;;;;;46.97;25.63;;;;;;;5.78;73.89;99984.44;5070559;28;20520;-68
2022/11/13 01:52:24;;;;;;;46.78;24.85;;;;;;;5.76;73.84;99987.34;5069916;28;20447;-67
2022/11/13 01:54:53;;;;;;;48.75;26.23;;;;;;;5.73;74.28;99978.81;5070929;28;20028;-68
2022/11/13 01:57:19;;;;;;;46.03;24.58;;;;;;;5.63;74.12;99977.44;5070955;28;20028;-68
2022/11/13 01:59:51;;;;;;;50.20;25.67;;;;;;;5.58;73.83;99969.13;5053034;28;20043;-68
2022/11/13 02:02:17;;;;;;;44.80;24.42;;;;;;;5.57;73.54;99964.75;5070551;28;20028;-68
2022/11/13 02:04:43;;;;;;;47.95;24.80;;;;;;;5.53;74.01;99965.44;5070898;28;20033;-67
2022/11/13 02:07:14;;;;;;;47.95;25.85;;;;;;;5.48;73.79;99966.94;5071053;28;20025;-67
2022/11/13 02:09:46;;;;;;;51.03;26.75;;;;;;;5.49;73.86;99963.16;5070471;28;20098;-68
2022/11/13 02:12:15;;;;;;;47.90;26.52;;;;;;;5.55;73.99;99975.03;5070014;28;20032;-67
2022/11/13 02:14:50;;;;;;;49.47;26.05;;;;;;;5.56;74.17;99968.53;5070197;28;20032;-68
2022/11/13 02:17:22;;;;;;;46.88;25.95;;;;;;;5.54;74.30;99970.63;5071230;28;20033;-68
2022/11/13 02:19:51;;;;;;;53.58;27.63;;;;;;;5.51;74.29;99973.81;5068615;28;20443;-68
2022/11/13 02:22:34;;;;;;;50.95;26.27;;;;;;;5.51;74.16;99977.38;5070329;28;20035;-67
2022/11/13 02:25:02;;;;;;;47.67;25.92;;;;;;;5.53;74.58;99976.31;5069866;28;20021;-68
2022/11/13 02:27:47;;;;;;;46.17;23.42;;;;;;;5.50;74.47;99983.88;5069632;28;20111;-68
2022/11/13 02:30:23;;;;;;;51.90;26.77;;;;;;;5.49;74.12;99978.66;5068288;28;20441;-68
2022/11/13 02:32:51;;;;;;;53.08;26.83;;;;;;;5.54;74.12;99991.59;5069986;28;20024;-68
2022/11/13 02:35:23;;;;;;;54.97;27.15;;;;;;;5.55;74.59;99995.97;5070455;28;20032;-68
2022/11/13 02:37:49;;;;;;;54.50;29.25;;;;;;;5.56;74.55;99990.28;5070674;28;20375;-68
2022/11/13 02:40:15;;;;;;;46.65;25.65;;;;;;;5.56;74.47;99992.19;5070469;28;20024;-68
2022/11/13 02:42:40;;;;;;;57.03;27.42;;;;;;;5.57;74.38;99991.13;5070588;28;20041;-68
2022/11/13 02:45:06;;;;;;;54.22;27.45;;;;;;;5.57;74.38;100002.03;5051777;28;20040;-68
2022/11/13 02:47:32;;;;;;;54.08;26.52;;;;;;;5.57;74.30;99985.69;5070032;28;20029;-67
2022/11/13 02:49:57;;;;;;;49.33;25.90;;;;;;;5.56;74.61;99990.28;5069384;28;20500;-68
2022/11/13 02:52:23;;;;;;;53.13;27.42;;;;;;;5.56;74.28;99987.56;5069546;28;20089;-68
2022/11/13 02:54:48;;;;;;;56.03;27.08;;;;;;;5.58;74.49;99990.91;5069327;28;20028;-67
2022/11/13 02:57:13;;;;;;;52.95;26.42;;;;;;;5.52;74.54;99991.81;5069793;28;20037;-68
2022/11/13 02:59:39;;;;;;;48.50;23.88;;;;;;;5.52;74.01;99991.81;5069284;28;20036;-67
2022/11/13 03:02:04;;;;;;;45.90;24.33;;;;;;;5.50;74.58;99981.16;5069633;28;20103;-68
2022/11/13 03:04:30;;;;;;;46.90;24.67;;;;;;;5.52;74.44;99983.63;5069346;28;21396;-68
2022/11/13 03:06:55;;;;;;;49.20;24.77;;;;;;;5.54;74.42;99983.44;5069350;28;20387;-67
2022/11/13 03:09:20;;;;;;;45.50;24.73;;;;;;;5.51;74.57;99984.69;5069654;28;20210;-67
2022/11/13 03:11:46;;;;;;;53.28;26.13;;;;;;;5.51;74.39;99981.97;5068456;28;20044;-68
2022/11/13 03:14:11;;;;;;;42.42;23.08;;;;;;;5.48;74.29;99982.44;5050828;28;21395;-67
2022/11/13 03:16:36;;;;;;;46.35;23.75;;;;;;;5.45;74.54;99981.00;5069840;28;20021;-68
2022/11/13 03:19:02;;;;;;;43.92;24.02;;;;;;;5.45;74.33;99986.44;5069211;28;20425;-68
2022/11/13 03:21:29;;;;;;;42.20;22.50;;;;;;;5.45;74.38;99972.00;5068727;28;20417;-67
2022/11/13 03:23:55;;;;;;;41.78;22.90;;;;;;;5.44;74.41;99970.34;5069555;28;20032;-67
2022/11/13 03:26:21;;;;;;;42.60;24.88;;;;;;;5.44;74.41;99973.88;5068889;28;20159;-67
2022/11/13 03:28:46;;;;;;;46.15;24.30;;;;;;;5.47;74.64;99972.63;5068743;28;20033;-67
2022/11/13 03:31:12;;;;;;;48.40;25.25;;;;;;;5.47;74.75;99978.06;5069618;28;20035;-68
2022/11/13 03:33:38;;;;;;;44.55;24.45;;;;;;;5.47;74.42;99983.50;5069278;28;20035;-68
2022/11/13 03:36:04;;;;;;;43.47;23.67;;;;;;;5.49;74.79;99981.41;5069357;28;20041;-67
2022/11/13 03:38:29;;;;;;;47.63;24.30;;;;;;;5.49;74.50;99978.66;5051495;28;20028;-68
2022/11/13 03:40:55;;;;;;;45.00;23.40;;;;;;;5.48;74.76;99977.81;5069459;28;20110;-68
2022/11/13 03:43:20;;;;;;;45.85;23.80;;;;;;;5.53;74.09;99979.03;5069338;28;20055;-67
2022/11/13 03:45:46;;;;;;;46.65;24.10;;;;;;;5.51;74.15;99973.81;5067862;28;20035;-69
2022/11/13 03:48:15;;;;;;;46.13;23.20;;;;;;;5.49;74.61;99970.50;5067504;28;20073;-68
2022/11/13 03:50:50;;;;;;;47.25;23.05;;;;;;;5.47;74.58;99962.56;5065894;28;20025;-70
2022/11/13 03:53:16;;;;;;;48.80;23.35;;;;;;;5.46;74.09;99965.50;5066322;28;20029;-70
2022/11/13 03:55:42;;;;;;;47.03;24.00;;;;;;;5.43;74.71;99969.50;5068097;28;20025;-72
2022/11/13 03:58:07;;;;;;;44.17;23.92;;;;;;;5.44;74.72;99968.44;5067918;28;20066;-71
2022/11/13 04:00:33;;;;;;;46.47;22.88;;;;;;;5.49;74.70;99974.03;5069643;28;20130;-71
2022/11/13 04:02:59;;;;;;;47.45;24.02;;;;;;;5.51;74.83;99971.94;5069813;28;20028;-71
2022/11/13 04:05:25;;;;;;;47.38;22.98;;;;;;;5.54;74.75;99967.91;5070022;28;20025;-71
2022/11/13 04:07:50;;;;;;;48.20;23.65;;;;;;;5.54;74.89;99970.63;5065753;28;20460;-71
2022/11/13 04:10:16;;;;;;;49.17;24.55;;;;;;;5.56;74.61;99965.81;5068224;28;20040;-71
2022/11/13 04:12:41;;;;;;;47.45;24.27;;;;;;;5.57;74.49;99966.66;5067662;28;20029;-72
2022/11/13 04:15:07;;;;;;;53.08;26.50;;;;;;;5.59;74.81;99964.53;5068531;28;20032;-72
2022/11/13 04:17:32;;;;;;;52.83;26.65;;;;;;;5.61;74.20;99967.88;5068226;28;20040;-71
2022/11/13 04:19:58;;;;;;;51.03;24.98;;;;;;;5.59;74.23;99968.06;5068678;28;20023;-70
2022/11/13 04:22:23;;;;;;;53.83;24.15;;;;;;;5.59;74.65;99975.41;5068621;28;20389;-70
2022/11/13 04:24:49;;;;;;;49.03;24.23;;;;;;;5.56;74.49;99971.25;5068468;28;20088;-70
2022/11/13 04:27:14;;;;;;;55.45;26.10;;;;;;;5.59;74.43;99962.63;5067791;28;20039;-70
2022/11/13 04:29:39;;;;;;;49.47;22.85;;;;;;;5.62;74.72;99974.97;5067792;28;20419;-70
2022/11/13 04:32:05;;;;;;;49.20;23.20;;;;;;;5.66;74.33;99968.03;5068081;28;20071;-68
2022/11/13 04:34:31;;;;;;;48.20;23.17;;;;;;;5.68;74.57;99970.50;5072095;28;20021;-69
2022/11/13 04:36:56;;;;;;;52.80;24.05;;;;;;;5.69;74.85;99966.72;5071452;28;20021;-69
2022/11/13 04:39:21;;;;;;;49.50;23.58;;;;;;;5.69;74.35;99975.75;5072001;28;20025;-69
2022/11/13 04:44:30;;;;;;;47.45;21.88;;;;;;;5.75;74.85;99969.34;5070643;28;20038;-69
2022/11/13 04:46:56;;;;;;;48.10;22.48;;;;;;;5.77;74.87;99963.69;5072141;28;20107;-69
2022/11/13 04:49:21;;;;;;;46.53;22.40;;;;;;;5.78;74.29;99968.91;5072100;28;20024;-69
2022/11/13 04:51:47;;;;;;;49.35;22.50;;;;;;;5.78;74.86;99966.19;5071802;28;20021;-69
2022/11/13 04:54:12;;;;;;;48.63;22.45;;;;;;;5.81;74.63;99967.63;5072254;28;20070;-69
2022/11/13 04:56:37;;;;;;;46.45;22.60;;;;;;;5.81;74.46;99968.44;5072275;28;20428;-69
2022/11/13 04:59:03;;;;;;;48.97;22.98;;;;;;;5.81;74.21;99967.63;5053785;28;20029;-69
2022/11/13 05:01:28;;;;;;;49.80;22.40;;;;;;;5.79;74.93;99965.13;5072158;28;20052;-69
2022/11/13 05:03:54;;;;;;;42.72;20.83;;;;;;;5.82;74.55;99966.56;5071900;28;20032;-69
2022/11/13 05:06:20;;;;;;;42.45;20.85;;;;;;;5.83;74.47;99970.97;5072005;28;20073;-68
2022/11/13 05:08:46;;;;;;;45.05;21.65;;;;;;;5.81;74.49;99968.44;5071363;28;20027;-68
2022/11/13 05:11:12;;;;;;;45.40;21.48;;;;;;;5.82;74.55;99974.75;5071764;28;20032;-69
2022/11/13 05:13:37;;;;;;;45.15;20.30;;;;;;;5.82;74.47;99967.41;5071428;28;20028;-69
2022/11/13 05:16:08;;;;;;;49.60;22.85;;;;;;;5.81;74.90;99970.34;5071996;28;20024;-69
2022/11/13 05:18:36;;;;;;;49.28;22.52;;;;;;;5.76;74.32;99968.31;5071050;28;20039;-69
2022/11/13 05:21:02;;;;;;;47.90;21.38;;;;;;;5.75;74.56;99976.72;5071542;28;20025;-69
2022/11/13 05:23:27;;;;;;;47.50;21.40;;;;;;;5.76;74.89;99965.56;5071358;28;20099;-69
2022/11/13 05:26:00;;;;;;;45.47;21.45;;;;;;;5.78;74.73;99976.25;5071517;28;20131;-69
2022/11/13 05:28:25;;;;;;;46.58;21.10;;;;;;;5.81;74.69;99973.09;5070930;28;20020;-69
2022/11/13 05:30:51;;;;;;;43.22;21.05;;;;;;;5.81;74.33;99970.34;5071346;28;20024;-69
2022/11/13 05:33:16;;;;;;;48.53;22.15;;;;;;;5.79;74.57;99970.56;5070910;28;20024;-69
2022/11/13 05:35:41;;;;;;;44.92;21.10;;;;;;;5.77;74.51;99967.25;5071660;28;20046;-69
2022/11/13 05:38:07;;;;;;;39.25;20.60;;;;;;;5.80;75.05;99972.22;5071012;28;20105;-69
2022/11/13 05:40:32;;;;;;;47.10;21.70;;;;;;;5.82;74.76;99967.41;5053059;28;20020;-69
2022/11/13 05:42:57;;;;;;;43.90;20.90;;;;;;;5.84;74.79;99964.47;5071812;28;20031;-69
2022/11/13 05:45:23;;;;;;;42.60;21.80;;;;;;;5.84;74.46;99964.47;5071217;28;20051;-68
2022/11/13 05:47:49;;;;;;;44.70;21.60;;;;;;;5.82;75.02;99961.94;5071944;28;20056;-68
2022/11/13 05:50:14;;;;;;;41.00;20.15;;;;;;;5.86;74.77;99970.50;5053906;28;20101;-69
2022/11/13 05:52:40;;;;;;;38.42;19.90;;;;;;;5.89;75.18;99970.06;5070162;28;20052;-68
2022/11/13 05:55:06;;;;;;;38.95;19.75;;;;;;;5.90;74.74;99957.25;5072474;28;20025;-69
2022/11/13 05:57:31;;;;;;;46.60;21.30;;;;;;;5.89;74.93;99952.88;5071719;28;20024;-68
2022/11/13 05:59:57;;;;;;;42.60;20.35;;;;;;;5.89;75.03;99953.72;5071826;28;20029;-69
2022/11/13 06:02:22;;;;;;;36.13;18.00;;;;;;;5.90;74.64;99949.09;5070643;28;20039;-69
2022/11/13 06:04:48;;;;;;;35.53;17.73;;;;;;;5.89;75.13;99948.28;5072342;28;20025;-68
2022/11/13 06:07:13;;;;;;;32.53;16.30;;;;;;;5.87;74.94;99946.81;5071854;28;20039;-69
2022/11/13 06:09:39;;;;;;;36.03;17.42;;;;;;;5.84;74.63;99956.28;5071460;28;20111;-69
2022/11/13 06:12:04;;;;;;;34.83;16.52;;;;;;;5.81;74.90;99945.84;5069350;28;20044;-69
2022/11/13 06:14:31;;;;;;;32.90;17.05;;;;;;;5.78;74.55;99947.13;5070174;28;20107;-68
2022/11/13 06:16:56;;;;;;;35.83;16.90;;;;;;;5.76;74.69;99951.97;5069831;28;20043;-69
2022/11/13 06:19:22;;;;;;;36.03;16.42;;;;;;;5.75;74.88;99949.47;5070929;28;20025;-69
2022/11/13 06:21:47;;;;;;;38.05;17.10;;;;;;;5.73;74.74;99948.88;5053457;28;20031;-69
2022/11/13 06:24:13;;;;;;;31.25;16.02;;;;;;;5.73;74.31;99949.69;5070709;28;20063;-69
2022/11/13 06:26:38;;;;;;;34.65;15.98;;;;;;;5.72;74.93;99949.94;5071100;28;20090;-69
2022/11/13 06:29:05;;;;;;;34.67;17.25;;;;;;;5.71;75.15;99938.19;5051619;28;20064;-69
2022/11/13 06:31:34;;;;;;;38.53;16.00;;;;;;;5.71;75.28;99948.28;5069014;28;20111;-69
2022/11/13 06:34:00;;;;;;;35.97;16.73;;;;;;;5.68;74.94;99943.28;5069853;28;20024;-69
2022/11/13 06:36:28;;;;;;;33.08;16.90;;;;;;;5.64;74.95;99951.91;5053435;28;20136;-69
2022/11/13 06:38:54;;;;;;;35.17;17.20;;;;;;;5.64;74.86;99946.44;5069958;28;20103;-69
2022/11/13 06:41:22;;;;;;;35.72;18.55;;;;;;;5.62;75.05;99947.75;5069823;28;20107;-68
2022/11/13 06:43:48;;;;;;;33.65;16.73;;;;;;;5.62;74.91;99942.31;5070549;28;20020;-69
2022/11/13 06:46:24;;;;;;;34.25;16.42;;;;;;;5.59;74.98;99940.03;5070889;28;20543;-69
2022/11/13 06:48:50;;;;;;;31.38;15.38;;;;;;;5.62;74.95;99943.13;5070068;28;20025;-69
2022/11/13 06:51:22;;;;;;;32.75;15.85;;;;;;;5.63;75.21;99933.91;5069766;28;20090;-69
2022/11/13 06:53:48;;;;;;;38.47;17.50;;;;;;;5.66;75.14;99940.81;5069465;28;20043;-69
2022/11/13 06:56:14;;;;;;;33.85;17.40;;;;;;;5.65;75.21;99942.69;5066758;28;20059;-69
2022/11/13 06:58:40;;;;;;;35.22;16.60;;;;;;;5.69;74.82;99934.91;5069682;28;20032;-69
2022/11/13 07:01:18;;;;;;;33.42;16.90;;;;;;;5.72;75.08;99936.31;5066352;28;20028;-69
2022/11/13 07:03:43;;;;;;;34.03;17.75;;;;;;;5.72;75.10;99936.31;5067522;28;20020;-69
2022/11/13 07:06:14;;;;;;;37.00;18.80;;;;;;;5.76;75.49;99937.53;5059500;28;20040;-70
2022/11/13 07:08:41;;;;;;;38.20;21.00;;;;;;;5.81;75.05;99937.69;5055479;28;20082;-70
2022/11/13 07:11:10;;;;;;;39.40;22.27;;;;;;;5.85;75.15;99947.06;5055489;28;20044;-69
2022/11/13 07:13:37;;;;;;;43.05;26.08;;;;;;;5.87;75.32;99944.94;5054747;28;20055;-69
2022/11/13 07:16:06;;;;;;;38.55;20.98;;;;;;;5.90;75.26;99939.03;5060462;28;20028;-69
2022/11/13 07:18:32;;;;;;;43.33;24.75;;;;;;;5.94;75.04;99942.13;5056529;28;20031;-69
2022/11/13 07:20:58;;;;;;;34.63;18.70;;;;;;;5.97;75.63;99938.94;5037297;28;20060;-69
2022/11/13 07:23:23;;;;;;;34.58;18.42;;;;;;;6.01;75.39;99944.78;5053488;28;20118;-69
2022/11/13 07:25:54;;;;;;;30.40;17.83;;;;;;;5.99;75.42;99935.97;5061727;28;20144;-68
2022/11/13 07:28:19;;;;;;;36.15;18.95;;;;;;;6.01;74.85;99939.34;5057960;28;20021;-69
2022/11/13 07:30:44;;;;;;;39.47;24.13;;;;;;;6.03;74.95;99931.78;5069482;28;20020;-70
2022/11/13 07:33:10;;;;;;;44.22;27.63;;;;;;;6.07;75.29;99931.09;5050495;28;20034;-69
2022/11/13 07:35:35;;;;;;;37.70;20.80;;;;;;;6.06;75.07;99925.88;5069113;28;20028;-69
2022/11/13 07:38:02;;;;;;;34.03;17.85;;;;;;;6.07;75.20;99928.38;5069331;28;20024;-70
2022/11/13 07:40:27;;;;;;;31.50;17.40;;;;;;;6.07;74.76;99927.53;5069056;28;20016;-70
2022/11/13 07:43:00;;;;;;;36.50;21.38;;;;;;;6.11;75.20;99929.56;5067944;28;20019;-70
2022/11/13 07:45:27;;;;;;;39.72;22.27;;;;;;;6.16;74.90;99934.31;5069407;28;20021;-70
2022/11/13 07:48:05;;;;;;;36.95;21.38;;;;;;;6.21;75.04;99941.81;5051293;28;20021;-69
2022/11/13 07:50:34;;;;;;;38.85;21.33;;;;;;;6.24;74.97;99933.16;5068726;28;20031;-70
2022/11/13 07:53:05;;;;;;;41.35;23.05;;;;;;;6.30;75.22;99943.13;5068323;28;20059;-70
2022/11/13 07:55:33;;;;;;;37.38;20.70;;;;;;;6.32;75.48;99941.03;5068586;28;20051;-70
2022/11/13 07:57:59;;;;;;;44.80;20.67;;;;;;;6.35;74.92;99937.00;5069265;28;20488;-70
2022/11/13 08:00:26;;;;;;;34.65;19.00;;;;;;;6.33;75.26;99942.69;5069391;28;20051;-69
2022/11/13 08:02:51;;;;;;;36.40;18.98;;;;;;;6.34;75.13;99947.06;5066695;28;20101;-70
2022/11/13 08:05:17;;;;;;;35.88;19.02;;;;;;;6.38;75.09;99944.69;5069234;28;20115;-69
2022/11/13 08:07:47;;;;;;;39.30;20.85;;;;;;;6.38;75.43;99944.69;5070793;28;20059;-69
2022/11/13 08:10:12;;;;;;;42.60;21.33;;;;;;;6.41;75.21;99941.50;5073255;28;20024;-69
2022/11/13 08:12:37;;;;;;;39.20;20.30;;;;;;;6.39;75.02;99947.22;5073177;28;20020;-70
2022/11/13 08:15:03;;;;;;;37.65;20.23;;;;;;;6.42;75.01;99950.53;5072575;28;20029;-70
2022/11/13 08:17:28;;;;;;;44.55;23.05;;;;;;;6.47;75.33;99945.22;5072972;28;20468;-69
2022/11/13 08:19:54;;;;;;;40.40;21.55;;;;;;;6.50;74.95;99942.03;5072583;28;20036;-70
2022/11/13 08:22:19;;;;;;;42.13;22.38;;;;;;;6.51;75.38;99936.34;5072690;28;20028;-70
2022/11/13 08:24:45;;;;;;;43.30;23.45;;;;;;;6.51;75.25;99939.06;5072670;28;20016;-69
2022/11/13 08:27:10;;;;;;;40.60;21.50;;;;;;;6.48;74.94;99936.00;5072645;28;20040;-69
2022/11/13 08:29:36;;;;;;;39.22;20.35;;;;;;;6.48;74.63;99944.16;5054646;28;20029;-69
2022/11/13 08:32:03;;;;;;;39.80;19.85;;;;;;;6.49;74.82;99941.19;5072706;28;20027;-69
2022/11/13 08:34:28;;;;;;;37.78;19.90;;;;;;;6.51;74.91;99940.97;5072248;28;20052;-69
2022/11/13 08:36:53;;;;;;;37.47;20.02;;;;;;;6.50;74.68;99942.03;5072630;28;20479;-69
2022/11/13 08:39:19;;;;;;;38.78;21.45;;;;;;;6.57;74.75;99937.28;5054295;28;20025;-69
2022/11/13 08:41:44;;;;;;;35.63;18.73;;;;;;;6.57;75.15;99942.75;5072578;28;20019;-69
2022/11/13 08:44:11;;;;;;;40.40;19.55;;;;;;;6.59;74.94;99943.34;5071383;28;20048;-69
2022/11/13 08:46:37;;;;;;;37.88;19.55;;;;;;;6.61;75.29;99940.41;5072161;28;20108;-69
2022/11/13 08:49:03;;;;;;;39.25;19.88;;;;;;;6.65;75.16;99944.31;5071892;28;20024;-69
2022/11/13 08:51:29;;;;;;;38.95;19.17;;;;;;;6.64;74.82;99938.03;5072009;28;20070;-70
2022/11/13 08:53:54;;;;;;;40.15;21.15;;;;;;;6.69;74.93;99940.06;5071904;28;20020;-70
2022/11/13 08:56:19;;;;;;;39.25;18.80;;;;;;;6.75;75.35;99946.47;5071822;28;20055;-70
2022/11/13 08:58:45;;;;;;;36.10;19.77;;;;;;;6.76;75.06;99946.22;5071786;28;20457;-70
2022/11/13 09:01:10;;;;;;;39.20;20.20;;;;;;;6.78;74.29;99941.38;5072368;28;20025;-70
2022/11/13 09:03:35;;;;;;;40.42;20.23;;;;;;;6.83;75.00;99941.50;5072127;28;20033;-70
2022/11/13 09:06:07;;;;;;;42.33;21.27;;;;;;;6.91;75.13;99942.22;5071715;28;20457;-70
2022/11/13 09:08:33;;;;;;;46.05;22.92;;;;;;;6.96;75.19;99939.63;5071812;28;20017;-70
2022/11/13 09:11:03;;;;;;;38.88;21.70;;;;;;;6.95;75.29;99946.97;5071926;28;20077;-70
2022/11/13 09:13:29;;;;;;;38.78;20.60;;;;;;;6.98;75.01;99935.56;5071465;28;20043;-70
2022/11/13 09:16:00;;;;;;;38.42;21.13;;;;;;;6.98;74.95;99942.94;5070945;28;20016;-70
2022/11/13 09:18:25;;;;;;;38.83;20.73;;;;;;;7.00;75.08;99946.28;5070581;28;20029;-70
2022/11/13 09:20:51;;;;;;;39.67;21.48;;;;;;;7.06;75.10;99945.34;5071514;28;20587;-69
2022/11/13 09:23:16;;;;;;;40.72;21.42;;;;;;;7.09;75.06;99947.59;5068675;28;20389;-70
2022/11/13 09:25:41;;;;;;;40.88;21.92;;;;;;;7.15;75.08;99949.34;5072214;28;20036;-71
2022/11/13 09:28:08;;;;;;;42.63;21.90;;;;;;;7.20;75.15;99954.09;5072519;28;20033;-70
2022/11/13 09:30:38;;;;;;;41.03;21.58;;;;;;;7.24;74.87;99944.38;5071370;28;20546;-70
2022/11/13 09:33:04;;;;;;;39.53;20.67;;;;;;;7.30;75.11;99942.59;5070535;28;20439;-70
2022/11/13 09:35:33;;;;;;;42.90;21.75;;;;;;;7.29;75.13;99943.66;5070587;28;20031;-70
2022/11/13 09:38:07;;;;;;;45.30;23.33;;;;;;;7.33;75.20;99942.13;5072104;28;20027;-70
2022/11/13 09:40:38;;;;;;;44.20;23.55;;;;;;;7.29;75.03;99947.22;5072430;28;20020;-69
2022/11/13 09:43:06;;;;;;;44.60;22.60;;;;;;;7.27;74.68;99957.56;5071973;28;20086;-70
2022/11/13 09:45:32;;;;;;;41.65;22.58;;;;;;;7.28;74.96;99950.19;5072138;28;20032;-70
2022/11/13 09:48:23;;;;;;;46.70;23.52;;;;;;;7.24;74.95;99944.38;5070615;28;20020;-70
2022/11/13 09:50:50;;;;;;;44.28;24.60;;;;;;;7.29;75.07;99940.94;5059678;28;20046;-70
2022/11/13 09:53:15;;;;;;;45.50;23.77;;;;;;;7.33;75.41;99936.66;5070712;28;20027;-71
2022/11/13 09:55:55;;;;;;;41.75;22.20;;;;;;;7.34;75.17;99941.06;5070932;28;20032;-72
2022/11/13 09:58:50;;;;;;;49.85;28.88;;;;;;;7.33;75.15;99931.19;5071450;28;20024;-70
2022/11/13 10:01:27;;;;;;;48.58;26.33;;;;;;;7.36;75.00;99933.44;5069995;28;20802;-70
2022/11/13 10:03:59;;;;;;;52.30;27.58;;;;;;;7.37;75.17;99935.13;5067809;28;20043;-69
2022/11/13 10:06:47;;;;;;;48.72;26.58;;;;;;;7.45;75.52;99928.44;5069289;28;20028;-69
2022/11/13 10:09:33;;;;;;;41.00;23.38;;;;;;;7.51;75.48;99923.97;5068101;28;20400;-69
2022/11/13 10:12:05;;;;;;;48.30;27.98;;;;;;;7.55;74.98;99930.56;5071062;28;20051;-70
2022/11/13 10:14:36;;;;;;;52.70;31.05;;;;;;;7.55;75.27;99928.69;5071666;28;20107;-70
2022/11/13 10:17:26;;;;;;;42.88;24.73;;;;;;;7.57;74.75;99922.97;5071173;28;20052;-70
2022/11/13 10:20:01;;;;;;;41.50;21.95;;;;;;;7.62;75.45;99917.63;5049664;28;20067;-70
2022/11/13 10:22:49;;;;;;;43.28;23.73;;;;;;;7.69;75.12;99909.31;5070619;28;20036;-70
2022/11/13 10:25:18;;;;;;;48.35;26.60;;;;;;;7.71;75.59;99916.19;5071048;28;20051;-69
2022/11/13 10:27:59;;;;;;;59.08;34.00;;;;;;;7.69;75.16;99907.41;5072551;28;20052;-69
2022/11/13 10:30:25;;;;;;;48.60;26.45;;;;;;;7.74;75.07;99909.41;5070943;28;20448;-70
2022/11/13 10:32:51;;;;;;;49.08;26.83;;;;;;;7.78;75.47;99905.09;5071123;28;20028;-69
2022/11/13 10:35:40;;;;;;;49.30;26.48;;;;;;;7.82;75.79;99905.47;5071366;28;20068;-70
2022/11/13 10:38:34;;;;;;;52.50;26.20;;;;;;;7.89;75.68;99897.97;5070160;28;20028;-70
2022/11/13 10:41:09;;;;;;;48.50;25.42;;;;;;;7.96;75.32;99908.75;5071149;28;20044;-69
2022/11/13 10:43:35;;;;;;;43.88;24.90;;;;;;;8.01;75.26;99904.19;5071284;28;20129;-70
2022/11/13 10:46:04;;;;;;;48.35;26.25;;;;;;;8.09;75.58;99899.44;5071087;28;20441;-70
2022/11/13 10:48:34;;;;;;;44.17;25.00;;;;;;;8.14;75.60;99910.44;5070626;28;20408;-70
2022/11/13 10:51:18;;;;;;;42.58;24.17;;;;;;;8.18;75.46;99898.78;5071113;28;20024;-70
2022/11/13 10:53:43;;;;;;;43.15;24.38;;;;;;;8.28;75.21;99900.06;5068365;28;20545;-70
2022/11/13 10:56:20;;;;;;;44.47;24.80;;;;;;;8.31;75.44;99897.66;5069880;28;20024;-70
2022/11/13 10:59:18;;;;;;;43.13;24.58;;;;;;;8.34;75.04;99894.44;5069369;28;20105;-69
2022/11/13 11:01:46;;;;;;;43.33;24.40;;;;;;;8.42;75.57;99897.81;5068674;28;20051;-70
2022/11/13 11:04:18;;;;;;;46.63;25.58;;;;;;;8.47;75.64;99882.38;5069680;28;20013;-70
2022/11/13 11:06:44;;;;;;;46.30;25.52;;;;;;;8.55;75.38;99886.63;5069379;28;20027;-70
2022/11/13 11:09:18;;;;;;;42.17;24.27;;;;;;;8.61;75.41;99880.16;5069056;28;20028;-70
2022/11/13 11:12:16;;;;;;;44.25;24.88;;;;;;;8.68;74.76;99873.69;5070029;28;20028;-70
2022/11/13 11:14:57;;;;;;;43.50;23.90;;;;;;;8.77;74.81;99875.75;5070082;28;20031;-70
2022/11/13 11:17:45;;;;;;;46.47;25.55;;;;;;;8.87;75.16;99880.56;5069562;28;20473;-69
2022/11/13 11:20:38;;;;;;;46.20;25.73;;;;;;;8.92;75.51;99866.97;5068277;28;20036;-69
2022/11/13 11:23:22;;;;;;;51.45;27.27;;;;;;;9.01;75.12;99856.41;5069430;28;20033;-70
2022/11/13 11:25:56;;;;;;;55.40;28.38;;;;;;;9.11;75.54;99860.38;5069428;28;20035;-70
2022/11/13 11:28:25;;;;;;;49.33;26.35;;;;;;;9.15;74.59;99861.53;5069269;28;21415;-70
2022/11/13 11:31:29;;;;;;;52.05;27.55;;;;;;;9.18;74.61;99859.09;5068566;28;20055;-69